Time;durP1;ratioP1;P1;durP2;ratioP2;P2;SDS_P1;SDS_P2;PMS_P1;PMS_P2;Temp;Humidity;BMP_temperature;BMP_pressure;BME280_temperature;BME280_humidity;BME280_pressure;Samples;Min_cycle;Max_cycle;Signal;HPM_P1;HPM_P2
2022/09/30 00:00:56;;;;;;;1.08;1.00;;;;;;;13.83;100.00;99174.84;6298131;28;20049;-75
2022/09/30 00:03:57;;;;;;;1.83;1.27;;;;;;;13.84;100.00;99173.88;6298178;28;20048;-75
2022/09/30 00:06:58;;;;;;;1.90;1.00;;;;;;;13.82;100.00;99179.25;6298264;28;20040;-75
2022/09/30 00:10:01;;;;;;;4.30;1.63;;;;;;;13.81;100.00;99179.38;6280262;28;20040;-75
2022/09/30 00:13:02;;;;;;;1.92;1.13;;;;;;;13.75;100.00;99170.25;6279370;28;20464;-72
2022/09/30 00:16:04;;;;;;;0.98;0.90;;;;;;;13.77;100.00;99170.13;6280275;28;20045;-75
2022/09/30 00:19:07;;;;;;;1.65;1.00;;;;;;;13.70;100.00;99165.44;6297718;28;20056;-75
2022/09/30 00:22:10;;;;;;;1.65;1.13;;;;;;;13.70;100.00;99172.47;6279980;28;20196;-73
2022/09/30 00:25:11;;;;;;;1.40;1.30;;;;;;;13.74;100.00;99171.25;6297679;28;20044;-75
2022/09/30 00:28:12;;;;;;;0.60;0.60;;;;;;;13.65;100.00;99170.25;6297841;28;20067;-76
2022/09/30 00:31:15;;;;;;;1.52;1.10;;;;;;;13.68;100.00;99169.16;6280155;28;20055;-76
2022/09/30 00:34:17;;;;;;;1.40;1.10;;;;;;;13.67;100.00;99175.34;6298253;28;20098;-72
2022/09/30 00:37:20;;;;;;;;;;;;;;;13.66;100.00;99171.91;6298484;28;20102;-72
2022/09/30 00:40:21;;;;;;;3.10;0.80;;;;;;;13.60;100.00;99167.19;6279434;28;20410;-73
2022/09/30 00:43:57;;;;;;;1.02;0.93;;;;;;;13.57;100.00;99159.63;6298081;28;20492;-75
2022/09/30 00:46:58;;;;;;;1.85;1.27;;;;;;;13.53;100.00;99163.47;6175877;28;20051;-72
2022/09/30 00:50:09;;;;;;;1.33;0.90;;;;;;;13.53;100.00;99170.50;6297773;28;20537;-73
2022/09/30 00:53:21;;;;;;;0.95;0.80;;;;;;;13.46;100.00;99164.97;6297675;28;20715;-73
2022/09/30 00:56:26;;;;;;;1.48;1.13;;;;;;;13.43;100.00;99157.38;6297692;28;20047;-73
2022/09/30 00:59:33;;;;;;;3.40;1.15;;;;;;;13.43;100.00;99165.25;6279819;28;20473;-73
2022/09/30 01:02:35;;;;;;;1.33;1.00;;;;;;;13.33;100.00;99152.09;6297703;28;20052;-73
2022/09/30 01:05:36;;;;;;;0.85;0.80;;;;;;;13.32;100.00;99157.47;6279748;28;20047;-72
2022/09/30 01:08:39;;;;;;;1.77;1.07;;;;;;;13.32;100.00;99158.28;6297681;28;20093;-75
2022/09/30 01:11:40;;;;;;;1.92;1.20;;;;;;;13.29;100.00;99159.38;6279766;28;20055;-75
2022/09/30 01:14:42;;;;;;;1.55;1.20;;;;;;;13.21;100.00;99158.38;6297447;28;20094;-72
2022/09/30 01:18:05;;;;;;;0.80;0.80;;;;;;;13.23;100.00;99143.34;6297361;28;20124;-72
2022/09/30 01:21:25;;;;;;;1.38;1.20;;;;;;;13.32;100.00;99154.84;6279196;28;20059;-72
2022/09/30 01:24:38;;;;;;;2.33;1.25;;;;;;;13.27;100.00;99148.19;6297180;28;20492;-75
2022/09/30 01:28:25;;;;;;;3.35;0.90;;;;;;;13.32;100.00;99154.84;6297373;28;20044;-75
2022/09/30 01:31:44;;;;;;;1.05;0.95;;;;;;;13.30;100.00;99147.13;6279633;28;20072;-72
2022/09/30 01:34:59;;;;;;;1.10;1.00;;;;;;;13.33;100.00;99153.91;6297366;28;20048;-75
2022/09/30 01:38:28;;;;;;;1.50;1.02;;;;;;;13.34;100.00;99148.50;6296806;28;20507;-75
2022/09/30 01:41:51;;;;;;;1.25;1.13;;;;;;;13.34;100.00;99145.06;6253916;28;20386;-75
2022/09/30 01:45:29;;;;;;;3.90;1.90;;;;;;;13.36;100.00;99137.91;6272279;28;20037;-73
2022/09/30 01:48:56;;;;;;;5.82;1.83;;;;;;;13.33;100.00;99146.03;6271991;28;20496;-73
2022/09/30 01:52:19;;;;;;;1.88;1.13;;;;;;;13.34;100.00;99147.69;6254436;28;20404;-72
2022/09/30 01:55:28;;;;;;;4.72;1.80;;;;;;;13.30;100.00;99147.97;6256313;28;20068;-73
2022/09/30 01:58:42;;;;;;;4.80;2.33;;;;;;;13.34;100.00;99152.91;6271902;28;20045;-75
2022/09/30 02:01:43;;;;;;;5.20;2.58;;;;;;;13.30;100.00;99147.97;6238032;28;20523;-75
2022/09/30 02:04:51;;;;;;;4.10;2.42;;;;;;;13.20;100.00;99136.59;6254455;28;20076;-75
2022/09/30 02:08:02;;;;;;;5.75;2.55;;;;;;;13.20;100.00;99133.13;6271461;28;20419;-75
2022/09/30 02:11:17;;;;;;;2.75;1.52;;;;;;;13.20;100.00;99125.25;6271189;28;20052;-75
2022/09/30 02:14:42;;;;;;;4.15;1.60;;;;;;;13.18;100.00;99135.91;6253250;28;20048;-72
2022/09/30 02:18:17;;;;;;;3.38;1.75;;;;;;;13.17;100.00;99139.47;6271077;28;20125;-72
2022/09/30 02:21:33;;;;;;;4.15;2.00;;;;;;;13.12;100.00;99133.00;6271709;28;20088;-73
2022/09/30 02:24:38;;;;;;;1.95;1.30;;;;;;;13.03;100.00;99130.19;6271542;28;20068;-75
2022/09/30 02:27:44;;;;;;;1.45;1.13;;;;;;;12.99;100.00;99133.19;6271715;28;20045;-75
2022/09/30 02:30:49;;;;;;;2.38;1.25;;;;;;;12.97;100.00;99130.72;6272064;28;20504;-72
2022/09/30 02:33:57;;;;;;;1.58;1.20;;;;;;;12.92;100.00;99127.66;6271516;28;20048;-74
2022/09/30 02:37:15;;;;;;;0.95;0.90;;;;;;;12.90;100.00;99125.16;6273199;28;20056;-75
2022/09/30 02:40:27;;;;;;;1.05;0.95;;;;;;;12.88;100.00;99140.16;6274173;28;20045;-75
2022/09/30 02:43:30;;;;;;;4.30;1.33;;;;;;;12.82;100.00;99147.72;6283230;28;20051;-73
2022/09/30 02:46:50;;;;;;;2.08;1.30;;;;;;;12.77;100.00;99155.16;6300699;28;20480;-75
2022/09/30 02:50:07;;;;;;;1.08;0.82;;;;;;;12.70;100.00;99153.03;6300925;28;20428;-76
2022/09/30 02:53:34;;;;;;;0.85;0.65;;;;;;;12.69;100.00;99163.63;6300662;28;20090;-73
2022/09/30 02:56:49;;;;;;;0.80;0.80;;;;;;;12.66;100.00;99156.03;6282889;28;20175;-76
2022/09/30 02:59:54;;;;;;;1.83;1.08;;;;;;;12.57;100.00;99164.66;6300452;28;20404;-75
2022/09/30 03:03:01;;;;;;;0.52;0.52;;;;;;;12.66;100.00;99169.13;6300720;28;20056;-76
2022/09/30 03:06:02;;;;;;;1.35;0.98;;;;;;;12.69;100.00;99187.19;6266121;28;20052;-76
2022/09/30 03:09:05;;;;;;;2.00;1.30;;;;;;;12.69;100.00;99180.16;6300363;28;20408;-76
2022/09/30 03:12:28;;;;;;;2.63;0.85;;;;;;;12.72;100.00;99192.16;6282587;28;20040;-76
2022/09/30 03:15:53;;;;;;;2.15;0.98;;;;;;;12.79;100.00;99197.72;6300405;28;20087;-75
2022/09/30 03:19:16;;;;;;;2.30;1.30;;;;;;;12.79;100.00;99213.44;6282284;28;20049;-75
2022/09/30 03:22:45;;;;;;;4.22;1.02;;;;;;;12.81;100.00;99208.91;6282071;28;20043;-72
2022/09/30 03:25:56;;;;;;;8.38;1.30;;;;;;;12.81;100.00;99212.34;6281988;28;20044;-76
2022/09/30 03:29:32;;;;;;;2.70;1.25;;;;;;;12.81;100.00;99207.09;6282031;28;20385;-72
2022/09/30 03:33:20;;;;;;;2.08;1.17;;;;;;;12.80;100.00;99207.22;6167829;28;20064;-72
2022/09/30 03:36:37;;;;;;;4.30;1.60;;;;;;;12.80;100.00;99204.63;6236050;28;20052;-75
2022/09/30 03:39:58;;;;;;;4.97;1.30;;;;;;;12.79;100.00;99209.03;6239900;28;20060;-76
2022/09/30 03:43:24;;;;;;;2.58;1.13;;;;;;;12.86;100.00;99201.47;6274794;28;20048;-76
2022/09/30 03:46:28;;;;;;;4.60;1.60;;;;;;;12.83;100.00;99199.13;6257054;28;20044;-72
2022/09/30 03:49:41;;;;;;;1.35;0.98;;;;;;;12.82;100.00;99202.69;6256909;28;20477;-76
2022/09/30 03:52:42;;;;;;;2.00;1.45;;;;;;;12.84;100.00;99206.84;6274655;28;20076;-72
2022/09/30 03:55:46;;;;;;;2.17;1.33;;;;;;;12.81;100.00;99211.53;6256604;28;20363;-73
2022/09/30 03:58:47;;;;;;;3.10;1.77;;;;;;;12.81;100.00;99198.44;6256080;28;20092;-74
2022/09/30 04:01:48;;;;;;;2.08;1.35;;;;;;;12.79;100.00;99202.97;6274261;28;20087;-72
2022/09/30 04:04:49;;;;;;;1.48;1.13;;;;;;;12.81;100.00;99201.88;6274525;28;20049;-76
2022/09/30 04:07:49;;;;;;;2.13;1.40;;;;;;;12.83;100.00;99207.81;6277428;28;20041;-75
2022/09/30 04:10:54;;;;;;;0.98;0.90;;;;;;;12.89;100.00;99212.53;6298106;28;20101;-76
2022/09/30 04:13:55;;;;;;;1.33;1.08;;;;;;;12.95;100.00;99221.66;6297617;28;20068;-75
2022/09/30 04:16:56;;;;;;;3.10;1.58;;;;;;;13.02;100.00;99225.41;6297798;28;20067;-76
2022/09/30 04:20:01;;;;;;;1.73;0.90;;;;;;;13.03;100.00;99221.84;6280322;28;20041;-76
2022/09/30 04:23:02;;;;;;;2.30;1.00;;;;;;;13.00;100.00;99223.88;6298127;28;20082;-76
2022/09/30 04:26:05;;;;;;;1.50;1.20;;;;;;;13.08;100.00;99234.56;6280157;28;20070;-76
2022/09/30 04:29:08;;;;;;;3.35;2.10;;;;;;;13.14;100.00;99234.03;6298066;28;20479;-75
2022/09/30 04:32:09;;;;;;;3.40;2.70;;;;;;;13.12;100.00;99224.66;6298098;28;20074;-76
2022/09/30 04:35:13;;;;;;;3.15;1.85;;;;;;;13.12;100.00;99222.84;6280453;28;20093;-75
2022/09/30 04:38:14;;;;;;;2.17;1.58;;;;;;;13.17;100.00;99222.47;6298228;28;20403;-75
2022/09/30 04:41:18;;;;;;;2.03;1.70;;;;;;;13.18;100.00;99224.97;6279930;28;20511;-72
2022/09/30 04:44:20;;;;;;;3.85;1.90;;;;;;;13.14;100.00;99236.66;6296439;28;20047;-75
2022/09/30 04:47:24;;;;;;;2.10;1.67;;;;;;;13.09;100.00;99233.56;6297789;28;20443;-75
2022/09/30 04:50:24;;;;;;;4.32;1.30;;;;;;;13.13;100.00;99242.00;6296761;28;20477;-72
2022/09/30 04:53:25;;;;;;;1.20;1.10;;;;;;;13.19;100.00;99231.84;6295268;28;20040;-72
2022/09/30 04:56:26;;;;;;;1.80;1.25;;;;;;;13.24;100.00;99234.91;6297123;28;20484;-75
2022/09/30 04:59:27;;;;;;;1.42;1.13;;;;;;;13.22;100.00;99241.22;6279449;28;20119;-72
2022/09/30 05:02:28;;;;;;;2.40;1.45;;;;;;;13.15;100.00;99227.81;6296798;28;20040;-72
2022/09/30 05:05:31;;;;;;;1.27;1.17;;;;;;;13.19;100.00;99231.00;6296588;28;20511;-72
2022/09/30 05:08:32;;;;;;;2.30;1.73;;;;;;;13.23;100.00;99233.22;6278762;28;20496;-72
2022/09/30 05:11:34;;;;;;;1.65;1.55;;;;;;;13.22;100.00;99231.59;6296552;28;20067;-71
2022/09/30 05:14:34;;;;;;;2.53;1.63;;;;;;;13.29;100.00;99230.13;6278516;28;20060;-72
2022/09/30 05:17:35;;;;;;;2.47;1.55;;;;;;;13.25;100.00;99223.47;6278686;28;20047;-72
2022/09/30 05:20:36;;;;;;;7.53;1.77;;;;;;;13.35;100.00;99230.56;6279430;28;20044;-75
2022/09/30 05:23:37;;;;;;;1.83;1.60;;;;;;;13.42;100.00;99236.94;6297593;28;20079;-75
2022/09/30 05:26:39;;;;;;;1.63;1.42;;;;;;;13.46;100.00;99239.16;6296788;28;20557;-75
2022/09/30 05:29:42;;;;;;;1.95;1.50;;;;;;;13.53;100.00;99242.09;6297251;28;20049;-72
2022/09/30 05:32:46;;;;;;;2.00;1.63;;;;;;;13.54;100.00;99249.00;6296684;28;20119;-72
2022/09/30 05:35:46;;;;;;;1.77;1.38;;;;;;;13.55;100.00;99261.16;6278936;28;20549;-75
2022/09/30 05:38:53;;;;;;;7.70;1.80;;;;;;;13.60;100.00;99258.94;6297310;28;20057;-75
2022/09/30 05:41:58;;;;;;;2.10;1.52;;;;;;;13.63;100.00;99245.59;6297386;28;20041;-75
2022/09/30 05:45:01;;;;;;;1.88;1.58;;;;;;;13.61;100.00;99252.75;6296681;28;20047;-72
2022/09/30 05:48:02;;;;;;;2.38;1.58;;;;;;;13.67;100.00;99260.09;6297291;28;20040;-75
2022/09/30 05:51:03;;;;;;;3.78;2.22;;;;;;;13.60;100.00;99261.56;6297454;28;20504;-75
2022/09/30 05:54:04;;;;;;;2.13;1.38;;;;;;;13.59;100.00;99261.69;6297443;28;20076;-75
2022/09/30 05:57:06;;;;;;;2.92;1.70;;;;;;;13.58;100.00;99257.41;6297536;28;20047;-75
2022/09/30 06:00:10;;;;;;;1.85;1.52;;;;;;;13.59;100.00;99273.03;6297369;28;20044;-75
2022/09/30 06:03:12;;;;;;;3.75;1.98;;;;;;;13.58;100.00;99271.34;6279613;28;20503;-75
2022/09/30 06:06:14;;;;;;;21.10;10.27;;;;;;;13.58;100.00;99270.53;6279720;28;20037;-75
2022/09/30 06:09:16;;;;;;;7.63;5.40;;;;;;;13.63;100.00;99265.69;6297397;28;20485;-76
2022/09/30 06:12:17;;;;;;;3.80;2.20;;;;;;;13.70;100.00;99269.47;6299818;28;20093;-75
2022/09/30 06:15:18;;;;;;;1.92;1.73;;;;;;;13.78;100.00;99267.00;6284345;28;20476;-75
2022/09/30 06:18:21;;;;;;;3.08;2.10;;;;;;;13.87;100.00;99262.75;6284270;28;20043;-75
2022/09/30 06:21:22;;;;;;;4.15;3.10;;;;;;;13.99;100.00;99266.94;6283075;28;20041;-71
2022/09/30 06:24:23;;;;;;;11.02;7.45;;;;;;;14.08;100.00;99278.41;6282501;28;20048;-71
2022/09/30 06:27:24;;;;;;;8.65;5.57;;;;;;;14.11;100.00;99278.97;6266250;28;20067;-75
2022/09/30 06:30:25;;;;;;;3.83;2.45;;;;;;;14.06;100.00;99301.31;6299743;28;20048;-72
2022/09/30 06:46:57;;;;;;;2.22;1.83;;;;;;;14.28;100.00;99314.19;6343813;27;20376;-78
2022/09/30 06:49:58;;;;;;;1.50;1.35;;;;;;;14.39;100.00;99315.91;6334860;28;20040;-82
2022/09/30 06:53:01;;;;;;;2.65;1.80;;;;;;;14.65;100.00;99324.09;6328965;28;20047;-82
2022/09/30 06:56:02;;;;;;;3.85;2.35;;;;;;;14.81;100.00;99327.97;6342717;28;20048;-77
2022/09/30 06:59:03;;;;;;;3.65;2.63;;;;;;;14.87;100.00;99330.88;6341965;28;20509;-78
2022/09/30 07:02:04;;;;;;;7.13;1.92;;;;;;;15.13;100.00;99322.41;6317160;28;20079;-78
2022/09/30 07:05:05;;;;;;;5.57;1.70;;;;;;;15.27;100.00;99321.16;6316923;28;20036;-78
2022/09/30 07:08:07;;;;;;;4.93;2.80;;;;;;;15.34;100.00;99326.66;6316982;28;20037;-81
2022/09/30 07:11:13;;;;;;;2.30;1.65;;;;;;;15.63;100.00;99322.16;6316879;28;20048;-81
2022/09/30 07:14:14;;;;;;;2.22;1.55;;;;;;;15.80;100.00;99327.66;6316939;28;20083;-81
2022/09/30 07:17:17;;;;;;;1.60;1.37;;;;;;;15.77;100.00;99331.41;6319768;28;20566;-81
2022/09/30 07:20:19;;;;;;;2.72;1.50;;;;;;;15.84;100.00;99353.53;6341889;28;20040;-81
2022/09/30 07:23:20;;;;;;;1.70;1.13;;;;;;;15.98;100.00;99352.25;6337400;28;20415;-80
2022/09/30 07:26:23;;;;;;;1.33;1.10;;;;;;;16.17;100.00;99361.00;6332631;28;20395;-77
2022/09/30 07:29:23;;;;;;;1.98;1.05;;;;;;;16.29;100.00;99371.19;6324702;28;20047;-78
2022/09/30 07:32:25;;;;;;;1.67;0.95;;;;;;;16.18;100.00;99381.91;6341512;28;20093;-77
2022/09/30 07:35:25;;;;;;;1.40;1.10;;;;;;;16.18;100.00;99367.91;6342790;28;20073;-80
2022/09/30 07:38:29;;;;;;;2.38;1.20;;;;;;;16.27;100.00;99380.22;6341536;28;20048;-77
2022/09/30 07:41:30;;;;;;;1.10;0.93;;;;;;;16.39;100.00;99380.81;6317698;28;20048;-77
2022/09/30 07:44:31;;;;;;;4.43;1.05;;;;;;;16.96;100.00;99384.06;6298861;28;20407;-77
2022/09/30 07:47:32;;;;;;;1.70;1.10;;;;;;;16.81;100.00;99385.59;6301298;28;20052;-78
2022/09/30 07:50:32;;;;;;;0.95;0.88;;;;;;;16.95;100.00;99394.78;6300363;28;20265;-79
2022/09/30 07:53:33;;;;;;;1.02;0.98;;;;;;;17.33;100.00;99401.53;6282271;28;20504;-79
2022/09/30 07:56:37;;;;;;;1.48;0.90;;;;;;;17.12;100.00;99405.31;6300431;28;20041;-79
2022/09/30 07:59:40;;;;;;;2.45;0.95;;;;;;;16.73;100.00;99402.09;6300214;28;20045;-77
2022/09/30 08:02:40;;;;;;;1.42;0.95;;;;;;;16.44;100.00;99402.28;6300372;28;20054;-76
2022/09/30 08:05:47;;;;;;;0.95;0.85;;;;;;;16.61;100.00;99401.47;6301072;28;20040;-76
2022/09/30 08:08:52;;;;;;;1.65;1.05;;;;;;;16.51;100.00;99396.28;6307224;28;20085;-77
2022/09/30 08:11:53;;;;;;;2.72;1.25;;;;;;;16.35;100.00;99401.38;6323759;28;20037;-77
2022/09/30 08:14:54;;;;;;;2.42;1.05;;;;;;;16.40;100.00;99383.31;6317552;28;20041;-77
2022/09/30 08:17:55;;;;;;;1.40;1.02;;;;;;;16.29;100.00;99379.09;6315337;28;20060;-77
2022/09/30 08:20:56;;;;;;;1.35;1.02;;;;;;;16.45;100.00;99367.91;6299709;28;20117;-77
2022/09/30 08:23:57;;;;;;;1.48;1.23;;;;;;;16.61;100.00;99356.72;6315145;28;20423;-77
2022/09/30 08:26:57;;;;;;;3.83;1.25;;;;;;;16.86;100.00;99351.72;6302722;28;20044;-77
2022/09/30 08:29:58;;;;;;;4.18;2.88;;;;;;;16.96;100.00;99351.63;6324702;28;20040;-80
2022/09/30 08:33:01;;;;;;;2.35;1.77;;;;;;;16.86;100.00;99343.81;6310549;28;20065;-80
2022/09/30 08:36:12;;;;;;;5.10;2.90;;;;;;;16.73;100.00;99358.16;6287971;28;20055;-80
2022/09/30 08:39:13;;;;;;;3.00;2.00;;;;;;;16.60;100.00;99380.59;6298482;28;20051;-80
2022/09/30 08:42:47;;;;;;;3.08;1.65;;;;;;;16.30;100.00;99379.91;6317505;28;20040;-79
2022/09/30 08:46:03;;;;;;;6.20;2.17;;;;;;;16.05;100.00;99390.13;6321274;28;20415;-80
2022/09/30 08:49:04;;;;;;;4.25;1.30;;;;;;;15.88;100.00;99404.88;6298203;28;20063;-79
2022/09/30 08:52:13;;;;;;;3.20;1.23;;;;;;;15.73;100.00;99400.22;6299376;28;20037;-80
2022/09/30 08:55:21;;;;;;;1.27;1.08;;;;;;;15.73;100.00;99414.22;6298030;28;20045;-81
2022/09/30 08:58:37;;;;;;;3.05;1.42;;;;;;;15.64;100.00;99421.09;6301609;28;20048;-77
2022/09/30 09:01:43;;;;;;;1.90;1.20;;;;;;;15.68;100.00;99424.28;6323212;28;20415;-80
2022/09/30 09:04:45;;;;;;;3.03;1.30;;;;;;;15.75;100.00;99425.44;6324277;28;20507;-80
2022/09/30 09:07:46;;;;;;;;;;;;;;;15.94;100.00;99434.22;6306353;28;20044;-80
2022/09/30 09:11:19;;;;;;;2.53;1.55;;;;;;;16.14;100.00;99433.16;6324134;28;19965;-80
2022/09/30 09:14:51;;;;;;;2.22;1.35;;;;;;;16.44;100.00;99424.19;6318784;28;20117;-78
2022/09/30 09:17:55;;;;;;;2.95;1.67;;;;;;;16.85;100.00;99432.56;6312207;28;20075;-78
2022/09/30 09:21:14;;;;;;;2.45;1.80;;;;;;;17.04;100.00;99443.94;6322217;28;20060;-80
2022/09/30 09:24:24;;;;;;;1.85;1.23;;;;;;;17.05;100.00;99443.81;6322130;28;20411;-80
2022/09/30 09:27:36;;;;;;;4.03;2.00;;;;;;;17.55;100.00;99460.06;6286903;28;20281;-81
2022/09/30 09:30:47;;;;;;;;;;;;;;;17.70;100.00;99451.41;6298642;28;20092;-80
2022/09/30 09:33:48;;;;;;;3.40;1.77;;;;;;;18.60;100.00;99442.34;6296849;28;19920;-81
2022/09/30 09:36:54;;;;;;;2.50;1.52;;;;;;;18.96;100.00;99448.25;6304953;28;20399;-80
2022/09/30 09:40:02;;;;;;;1.88;1.60;;;;;;;18.82;100.00;99451.50;6318342;28;20333;-81
2022/09/30 09:43:18;;;;;;;2.05;1.40;;;;;;;18.80;100.00;99459.63;6305231;28;20057;-80
2022/09/30 09:46:29;;;;;;;3.63;1.67;;;;;;;18.91;100.00;99461.97;6274508;28;20064;-80
2022/09/30 09:49:33;;;;;;;2.35;1.90;;;;;;;19.11;100.00;99457.22;6321525;28;20079;-81
2022/09/30 09:53:04;;;;;;;3.15;1.50;;;;;;;19.28;100.00;99454.59;6321553;28;20123;-76
2022/09/30 09:56:19;;;;;;;1.55;1.45;;;;;;;19.32;100.00;99461.19;6321336;28;20044;-77
2022/09/30 09:59:20;;;;;;;1.13;1.00;;;;;;;18.50;100.00;99448.59;6322722;28;20039;-79
2022/09/30 10:02:30;;;;;;;1.52;1.00;;;;;;;19.02;100.00;99444.13;6322398;28;20046;-80
2022/09/30 10:05:39;;;;;;;2.03;1.10;;;;;;;18.56;100.00;99455.06;6322335;28;20094;-79
2022/09/30 10:08:55;;;;;;;2.17;1.10;;;;;;;18.91;100.00;99447.91;6320949;28;20043;-77
2022/09/30 10:12:17;;;;;;;0.85;0.82;;;;;;;19.17;100.00;99455.75;6304197;28;20044;-76
2022/09/30 10:15:23;;;;;;;1.50;1.20;;;;;;;18.72;100.00;99439.25;6303492;28;20045;-76
2022/09/30 10:18:28;;;;;;;1.63;1.27;;;;;;;19.49;100.00;99446.16;6296660;28;20120;-77
2022/09/30 10:21:31;;;;;;;1.52;1.20;;;;;;;20.20;100.00;99456.97;6297647;28;20041;-76
2022/09/30 10:24:32;;;;;;;1.70;1.38;;;;;;;20.23;98.69;99452.16;6293536;28;20071;-77
2022/09/30 10:27:33;;;;;;;5.05;1.60;;;;;;;19.68;100.00;99437.88;6304895;28;20144;-77
2022/09/30 10:30:56;;;;;;;3.95;1.23;;;;;;;19.57;100.00;99454.09;6321435;28;20062;-78
2022/09/30 10:34:17;;;;;;;3.83;1.30;;;;;;;19.51;99.40;99457.38;6314135;28;20052;-77
2022/09/30 10:37:22;;;;;;;1.60;1.20;;;;;;;19.34;100.00;99459.22;6296380;28;20048;-77
2022/09/30 10:40:27;;;;;;;1.50;1.05;;;;;;;19.37;100.00;99453.59;6296146;28;20480;-80
2022/09/30 10:43:41;;;;;;;1.25;1.00;;;;;;;19.38;100.00;99457.06;6295853;28;20403;-80
2022/09/30 10:46:44;;;;;;;0.90;0.80;;;;;;;19.13;100.00;99449.94;6305777;28;20044;-77
2022/09/30 10:49:49;;;;;;;0.82;0.77;;;;;;;19.42;100.00;99451.28;6295625;28;20048;-78
2022/09/30 10:52:55;;;;;;;0.80;0.75;;;;;;;19.16;100.00;99464.66;6298796;28;20120;-77
2022/09/30 10:55:56;;;;;;;0.68;0.68;;;;;;;19.31;100.00;99473.59;6278686;28;20226;-77
2022/09/30 10:58:58;;;;;;;1.20;0.83;;;;;;;19.22;100.00;99471.09;6295384;28;20052;-79
2022/09/30 11:02:16;;;;;;;1.20;0.80;;;;;;;19.18;100.00;99470.59;6278719;28;20052;-81
2022/09/30 11:05:21;;;;;;;1.17;0.65;;;;;;;19.35;100.00;99484.66;6295326;28;20040;-80
2022/09/30 11:08:32;;;;;;;0.75;0.73;;;;;;;19.33;100.00;99481.34;6296592;28;20041;-80
2022/09/30 11:11:46;;;;;;;2.25;0.80;;;;;;;19.99;97.07;99490.13;6304292;28;20052;-80
2022/09/30 11:15:37;;;;;;;4.57;0.40;;;;;;;19.90;92.15;99488.50;6320382;28;20118;-77
2022/09/30 11:18:48;;;;;;;0.88;0.50;;;;;;;19.73;93.63;99493.81;6321573;28;20063;-76
2022/09/30 11:22:12;;;;;;;0.30;0.30;;;;;;;19.48;95.57;99500.06;6320441;28;20072;-77
2022/09/30 11:25:24;;;;;;;1.33;0.60;;;;;;;20.02;97.05;99497.75;6283845;28;20423;-81
2022/09/30 11:28:50;;;;;;;2.55;0.70;;;;;;;20.10;97.43;99492.44;6307658;28;20546;-81
2022/09/30 11:32:11;;;;;;;0.85;0.50;;;;;;;21.07;91.10;99494.88;6299041;28;20123;-81
2022/09/30 11:35:36;;;;;;;0.25;0.25;;;;;;;20.68;90.80;99497.59;6278848;28;20098;-81
2022/09/30 11:38:59;;;;;;;0.98;0.38;;;;;;;19.96;93.92;99498.41;6279358;28;20065;-80
2022/09/30 11:42:11;;;;;;;0.32;0.30;;;;;;;19.76;96.58;99508.50;6325839;28;20044;-80
2022/09/30 11:45:35;;;;;;;0.60;0.40;;;;;;;19.98;96.08;99508.84;6323943;28;20084;-80
2022/09/30 11:48:35;;;;;;;1.25;0.40;;;;;;;20.25;87.94;99503.16;6286945;28;20513;-80
2022/09/30 11:52:07;;;;;;;0.13;0.13;;;;;;;20.24;89.36;99505.97;6307132;28;20044;-80
2022/09/30 11:55:29;;;;;;;0.17;0.17;;;;;;;20.02;86.59;99518.94;6282202;28;20052;-80
2022/09/30 11:58:38;;;;;;;0.20;0.20;;;;;;;19.89;86.08;99523.88;6300407;28;20273;-80
2022/09/30 12:01:48;;;;;;;0.10;0.10;;;;;;;19.86;83.40;99534.81;6299940;28;20040;-79
2022/09/30 12:04:55;;;;;;;0.32;0.13;;;;;;;19.95;84.47;99533.00;6315579;28;20452;-77
2022/09/30 12:08:20;;;;;;;0.15;0.15;;;;;;;20.15;81.10;99530.81;6300292;28;20172;-77
2022/09/30 12:11:30;;;;;;;0.10;0.10;;;;;;;20.09;83.52;99535.78;6278353;28;20191;-78
2022/09/30 12:14:40;;;;;;;2.72;0.20;;;;;;;19.96;81.10;99534.66;6324775;28;20055;-78
2022/09/30 12:18:04;;;;;;;0.10;0.10;;;;;;;19.94;80.38;99548.06;6323638;28;20118;-77
2022/09/30 12:21:38;;;;;;;0.03;0.03;;;;;;;19.89;81.37;99545.91;6311026;28;20130;-78
2022/09/30 12:24:41;;;;;;;0.00;0.00;;;;;;;19.89;81.21;99545.06;6314761;28;20098;-78
2022/09/30 12:27:48;;;;;;;0.22;0.10;;;;;;;19.80;81.62;99541.59;6299335;28;20048;-78
2022/09/30 12:30:58;;;;;;;0.10;0.10;;;;;;;19.71;81.22;99545.25;6299293;28;20040;-77
2022/09/30 12:34:26;;;;;;;0.10;0.10;;;;;;;19.64;83.54;99568.88;6309228;28;20047;-77
2022/09/30 12:37:43;;;;;;;0.10;0.10;;;;;;;19.50;84.30;99557.13;6277148;28;20060;-78
2022/09/30 12:41:10;;;;;;;1.58;0.10;;;;;;;19.59;87.72;99554.47;6297813;28;20124;-78
2022/09/30 12:45:04;;;;;;;0.10;0.10;;;;;;;19.38;88.28;99562.88;6297419;28;20071;-78
2022/09/30 12:48:10;;;;;;;0.00;0.00;;;;;;;19.38;90.76;99566.34;6296216;28;20060;-78
2022/09/30 12:51:24;;;;;;;5.00;0.30;;;;;;;19.41;89.33;99567.84;6297520;28;20116;-77
2022/09/30 12:54:32;;;;;;;0.50;0.30;;;;;;;19.61;89.71;99571.00;6297678;28;20040;-78
2022/09/30 12:57:40;;;;;;;0.57;0.50;;;;;;;19.87;89.78;99577.03;6280542;28;20053;-76
2022/09/30 13:01:16;;;;;;;2.25;0.22;;;;;;;20.65;84.38;99574.78;6297260;28;20048;-76
2022/09/30 13:04:30;;;;;;;0.30;0.28;;;;;;;20.93;80.58;99585.78;6297143;28;20055;-76
2022/09/30 13:07:32;;;;;;;0.05;0.05;;;;;;;21.09;79.33;99584.91;6314003;28;20052;-78
2022/09/30 13:10:37;;;;;;;0.63;0.20;;;;;;;21.26;80.68;99594.41;6298133;28;20406;-78
2022/09/30 13:13:59;;;;;;;0.40;0.10;;;;;;;21.21;79.42;99595.94;6296991;28;20123;-77
2022/09/30 13:17:06;;;;;;;0.30;0.15;;;;;;;21.44;78.72;99604.00;6298061;28;20045;-77
2022/09/30 13:20:46;;;;;;;0.10;0.10;;;;;;;21.35;76.53;99605.81;6280043;28;20055;-81
2022/09/30 13:23:52;;;;;;;0.75;0.10;;;;;;;21.23;77.75;99610.69;6296598;28;20452;-81
2022/09/30 13:27:07;;;;;;;0.08;0.08;;;;;;;21.53;79.44;99605.56;6313437;28;20056;-81
2022/09/30 13:30:17;;;;;;;0.10;0.10;;;;;;;21.47;77.78;99598.31;6297762;28;20047;-78
2022/09/30 13:33:41;;;;;;;0.00;0.00;;;;;;;21.13;79.57;99602.13;6296306;28;20084;-78
2022/09/30 13:36:51;;;;;;;4.63;0.28;;;;;;;20.79;81.33;99613.84;6297532;28;20068;-77
2022/09/30 13:39:55;;;;;;;0.10;0.10;;;;;;;20.39;81.45;99612.91;6297453;28;20110;-78
2022/09/30 13:42:56;;;;;;;0.10;0.10;;;;;;;20.35;82.25;99611.59;6296232;28;20055;-78
2022/09/30 13:46:03;;;;;;;0.65;0.32;;;;;;;20.23;82.30;99619.03;6312289;28;20048;-81
2022/09/30 13:49:13;;;;;;;0.47;0.20;;;;;;;20.28;84.78;99629.97;6297357;28;20044;-81
2022/09/30 13:52:37;;;;;;;0.63;0.30;;;;;;;20.14;84.64;99625.34;6297232;28;20480;-80
2022/09/30 13:55:44;;;;;;;0.40;0.32;;;;;;;20.19;85.62;99628.31;6297208;28;20162;-80
2022/09/30 13:59:19;;;;;;;0.20;0.20;;;;;;;20.07;84.00;99629.63;6312856;28;20048;-81
2022/09/30 14:02:41;;;;;;;2.05;0.47;;;;;;;20.13;85.04;99631.63;6295846;28;20064;-80
2022/09/30 14:06:01;;;;;;;0.32;0.30;;;;;;;20.47;85.79;99626.16;6295804;28;20045;-81
2022/09/30 14:09:22;;;;;;;0.30;0.17;;;;;;;20.54;85.24;99639.53;6301498;28;20442;-81
2022/09/30 14:12:37;;;;;;;0.28;0.28;;;;;;;20.43;85.26;99645.22;6301371;28;20416;-77
2022/09/30 14:16:05;;;;;;;0.10;0.10;;;;;;;20.44;82.84;99639.72;6302853;28;20129;-78
2022/09/30 14:19:24;;;;;;;1.27;0.95;;;;;;;20.44;83.97;99647.66;6296656;28;20060;-78
2022/09/30 14:22:28;;;;;;;1.88;0.50;;;;;;;20.50;83.46;99648.81;6312548;28;20115;-77
2022/09/30 14:25:39;;;;;;;1.73;0.75;;;;;;;20.60;83.56;99654.00;6320564;28;20040;-77
2022/09/30 14:28:52;;;;;;;1.38;0.35;;;;;;;20.61;82.06;99653.81;6321772;28;20396;-78
2022/09/30 14:31:54;;;;;;;0.60;0.60;;;;;;;20.30;82.95;99651.84;6311792;28;20109;-77
2022/09/30 14:34:57;;;;;;;0.20;0.20;;;;;;;20.04;84.30;99651.16;6329078;28;20040;-77
2022/09/30 14:38:12;;;;;;;0.30;0.30;;;;;;;20.02;86.50;99658.44;6296498;28;20041;-78
2022/09/30 14:41:21;;;;;;;0.20;0.20;;;;;;;19.79;86.44;99660.88;6295231;28;20103;-78
2022/09/30 14:44:26;;;;;;;1.38;0.57;;;;;;;20.00;86.17;99663.91;6278354;28;20053;-78
2022/09/30 14:47:27;;;;;;;1.05;0.30;;;;;;;19.93;85.51;99674.31;6305172;28;20051;-77
2022/09/30 14:50:36;;;;;;;0.50;0.25;;;;;;;19.83;88.06;99693.97;6296537;28;20400;-80
2022/09/30 14:53:51;;;;;;;0.13;0.13;;;;;;;19.61;89.35;99682.97;6296474;28;20041;-81
2022/09/30 14:56:53;;;;;;;0.17;0.10;;;;;;;19.49;88.33;99700.97;6297484;28;20079;-81